createdAt,value
2018-11-07T00:01:54.575Z,16.67
2018-11-07T00:04:28.431Z,17.17
2018-11-07T00:07:02.269Z,17.43
2018-11-07T00:09:36.237Z,15.87
2018-11-07T00:12:10.073Z,14.60
2018-11-07T00:14:44.063Z,13.80
2018-11-07T00:17:18.137Z,14.53
2018-11-07T00:19:52.151Z,15.67
2018-11-07T00:22:26.006Z,13.83
2018-11-07T00:24:59.906Z,14.07
2018-11-07T00:27:33.805Z,13.60
2018-11-07T00:30:08.233Z,14.17
2018-11-07T00:32:42.007Z,14.07
2018-11-07T00:35:16.092Z,13.37
2018-11-07T00:37:49.883Z,13.13
2018-11-07T00:40:23.801Z,14.03
2018-11-07T00:42:57.789Z,13.30
2018-11-07T00:45:31.790Z,12.87
2018-11-07T00:48:05.652Z,13.40
2018-11-07T00:50:39.683Z,12.30
2018-11-07T00:53:13.573Z,13.07
2018-11-07T00:55:47.322Z,13.43
2018-11-07T00:58:21.093Z,13.87
2018-11-07T01:00:54.830Z,12.23
2018-11-07T01:03:28.871Z,12.90
2018-11-07T01:06:02.606Z,12.70
2018-11-07T01:08:36.671Z,13.23
2018-11-07T01:11:10.462Z,12.90
2018-11-07T01:13:44.408Z,13.07
2018-11-07T01:16:18.262Z,13.27
2018-11-07T01:18:52.177Z,11.27
2018-11-07T01:21:26.071Z,13.10
2018-11-07T01:24:00.083Z,11.93
2018-11-07T01:26:33.882Z,13.10
2018-11-07T01:29:07.679Z,12.60
2018-11-07T01:31:41.764Z,13.40
2018-11-07T01:34:15.682Z,12.10
2018-11-07T01:36:49.453Z,11.33
2018-11-07T01:39:23.521Z,11.77
2018-11-07T01:41:57.375Z,11.83
2018-11-07T01:44:31.304Z,12.37
2018-11-07T01:47:04.987Z,12.70
2018-11-07T01:49:39.059Z,11.53
2018-11-07T01:52:12.952Z,12.60
2018-11-07T01:54:46.824Z,12.47
2018-11-07T01:57:20.742Z,12.70
2018-11-07T01:59:54.746Z,13.57
2018-11-07T02:02:28.515Z,13.60
2018-11-07T02:05:02.460Z,13.30
2018-11-07T02:07:36.394Z,12.20
2018-11-07T02:10:10.821Z,11.97
2018-11-07T02:12:44.656Z,12.40
2018-11-07T02:15:18.699Z,12.90
2018-11-07T02:17:52.681Z,12.33
2018-11-07T02:20:26.611Z,12.83
2018-11-07T02:23:00.359Z,13.63
2018-11-07T02:25:33.936Z,13.93
2018-11-07T02:28:07.741Z,13.67
2018-11-07T02:30:41.694Z,12.93
2018-11-07T02:33:15.556Z,12.80
2018-11-07T02:35:49.371Z,12.93
2018-11-07T02:38:23.142Z,13.03
2018-11-07T02:40:57.047Z,13.73
2018-11-07T02:43:31.046Z,13.60
2018-11-07T02:46:05.300Z,13.60
2018-11-07T02:48:39.112Z,14.63
2018-11-07T02:51:13.048Z,13.63
2018-11-07T02:56:24.708Z,13.03
2018-11-07T02:58:58.985Z,13.47
2018-11-07T03:01:33.142Z,14.27
2018-11-07T03:04:07.506Z,15.20
2018-11-07T03:06:41.776Z,14.47
2018-11-07T03:09:17.137Z,12.33
2018-11-07T03:11:51.689Z,11.47
2018-11-07T03:14:26.222Z,14.90
2018-11-07T03:17:00.285Z,14.93
2018-11-07T03:19:34.361Z,16.07
2018-11-07T03:22:08.234Z,15.73
2018-11-07T03:24:43.004Z,16.07
2018-11-07T03:27:17.596Z,16.37
2018-11-07T03:29:51.976Z,17.07
2018-11-07T03:32:26.843Z,17.27
2018-11-07T03:35:01.339Z,16.90
2018-11-07T03:37:35.381Z,17.57
2018-11-07T03:40:10.041Z,17.17
2018-11-07T03:42:44.052Z,17.73
2018-11-07T03:45:19.093Z,16.67
2018-11-07T03:47:53.687Z,17.40
2018-11-07T03:50:27.830Z,17.10
2018-11-07T03:53:01.723Z,16.77
2018-11-07T03:55:35.596Z,17.10
2018-11-07T03:58:09.770Z,18.80
2018-11-07T04:00:44.951Z,17.63
2018-11-07T04:03:18.963Z,18.40
2018-11-07T04:05:52.713Z,17.97
2018-11-07T04:08:27.366Z,17.20
2018-11-07T04:11:01.282Z,18.30
2018-11-07T04:13:35.455Z,18.17
2018-11-07T04:16:09.311Z,17.37
2018-11-07T04:18:43.278Z,16.70
2018-11-07T04:21:17.149Z,17.80
2018-11-07T04:24:05.806Z,14.60
2018-11-07T04:26:39.637Z,14.13
2018-11-07T04:29:13.576Z,14.50
2018-11-07T04:31:47.401Z,16.87
2018-11-07T04:34:21.050Z,17.20
2018-11-07T04:36:54.858Z,17.73
2018-11-07T04:39:28.857Z,18.27
2018-11-07T04:42:02.788Z,18.50
2018-11-07T04:44:36.562Z,19.70
2018-11-07T04:47:10.393Z,19.47
2018-11-07T04:49:44.125Z,19.43
2018-11-07T04:52:17.938Z,19.43
2018-11-07T04:54:51.766Z,19.40
2018-11-07T04:57:25.577Z,17.43
2018-11-07T04:59:59.508Z,17.83
2018-11-07T05:02:33.996Z,17.57
2018-11-07T05:05:08.225Z,17.90
2018-11-07T05:07:42.172Z,17.63
2018-11-07T05:10:16.878Z,18.93
2018-11-07T05:12:50.913Z,16.63
2018-11-07T05:15:24.813Z,16.60
2018-11-07T05:17:58.901Z,17.83
2018-11-07T05:20:33.016Z,17.63
2018-11-07T05:23:07.137Z,18.60
2018-11-07T05:25:42.174Z,17.03
2018-11-07T05:28:16.449Z,17.27
2018-11-07T05:30:50.434Z,17.63
2018-11-07T05:33:24.324Z,16.80
2018-11-07T05:35:58.275Z,17.03
2018-11-07T05:38:32.464Z,17.87
2018-11-07T05:41:06.231Z,17.30
2018-11-07T05:43:40.546Z,17.07
2018-11-07T05:46:14.780Z,17.37
2018-11-07T05:48:48.951Z,16.70
2018-11-07T05:51:23.001Z,18.10
2018-11-07T05:53:58.113Z,16.73
2018-11-07T06:00:56.000Z,16.67
2018-11-07T06:03:30.839Z,16.97
2018-11-07T06:06:05.267Z,18.33
2018-11-07T06:08:39.336Z,18.23
2018-11-07T06:11:13.392Z,19.63
2018-11-07T06:13:47.623Z,17.37
2018-11-07T06:16:24.250Z,18.27
2018-11-07T06:18:59.247Z,18.33
2018-11-07T06:21:33.511Z,17.77
2018-11-07T06:26:47.868Z,20.00
2018-11-07T06:29:25.412Z,19.60
2018-11-07T06:32:00.972Z,20.23
2018-11-07T06:34:38.088Z,21.40
2018-11-07T06:40:07.055Z,22.93
2018-11-07T06:42:45.568Z,21.67
2018-11-07T06:46:06.956Z,22.87
2018-11-07T06:48:44.249Z,22.90
2018-11-07T06:51:59.372Z,24.27
2018-11-07T07:06:05.927Z,23.63
2018-11-07T07:08:40.272Z,24.20
2018-11-07T07:11:15.241Z,24.80
2018-11-07T07:13:49.065Z,24.77
2018-11-07T07:16:23.061Z,24.20
2018-11-07T07:18:56.983Z,23.73
2018-11-07T07:21:30.893Z,24.67
2018-11-07T07:24:04.703Z,24.23
2018-11-07T07:26:38.963Z,22.60
2018-11-07T07:29:12.866Z,23.77
2018-11-07T07:31:46.847Z,24.83
2018-11-07T07:34:23.673Z,25.73
2018-11-07T07:36:57.427Z,26.50
2018-11-07T07:39:31.404Z,26.40
2018-11-07T07:42:05.094Z,29.80
2018-11-07T07:44:38.845Z,27.70
2018-11-07T07:47:12.725Z,28.53
2018-11-07T07:49:46.772Z,27.00
2018-11-07T07:52:20.859Z,27.37
2018-11-07T07:54:54.841Z,26.63
2018-11-07T07:57:29.013Z,26.90
2018-11-07T08:00:02.871Z,24.57
2018-11-07T08:02:36.614Z,26.30
2018-11-07T08:05:10.267Z,23.50
2018-11-07T08:07:44.483Z,21.77
2018-11-07T08:10:19.691Z,22.40
2018-11-07T08:12:53.514Z,24.63
2018-11-07T08:15:27.317Z,22.40
2018-11-07T08:18:01.277Z,20.63
2018-11-07T08:20:35.199Z,22.50
2018-11-07T08:23:09.070Z,21.90
2018-11-07T08:25:42.807Z,22.67
2018-11-07T08:28:16.752Z,22.63
2018-11-07T08:30:50.720Z,21.70
2018-11-07T08:33:24.422Z,20.33
2018-11-07T08:35:58.373Z,19.57
2018-11-07T08:38:32.305Z,17.77
2018-11-07T08:41:06.260Z,17.87
2018-11-07T08:43:39.993Z,18.77
2018-11-07T08:46:14.008Z,20.17
2018-11-07T08:48:47.836Z,19.53
2018-11-07T08:51:21.754Z,18.23
2018-11-07T08:53:55.572Z,18.07
2018-11-07T08:56:30.399Z,18.97
2018-11-07T08:59:04.117Z,33.57
2018-11-07T09:04:11.956Z,18.93
2018-11-07T09:06:45.970Z,21.17
2018-11-07T09:09:19.717Z,20.53
2018-11-07T09:11:53.771Z,26.97
2018-11-07T09:14:27.587Z,24.90
2018-11-07T09:17:01.587Z,23.63
2018-11-07T09:19:35.472Z,28.00
2018-11-07T09:22:09.233Z,29.40
2018-11-07T09:24:43.182Z,25.33
2018-11-07T09:27:17.135Z,28.53
2018-11-07T09:29:51.197Z,25.70
2018-11-07T09:32:25.153Z,25.73
2018-11-07T09:34:59.168Z,26.97
2018-11-07T09:37:33.095Z,26.37
2018-11-07T09:40:08.903Z,27.97
2018-11-07T09:42:43.322Z,24.90
2018-11-07T09:45:18.524Z,27.73
2018-11-07T09:47:52.472Z,26.43
2018-11-07T09:50:26.158Z,26.63
2018-11-07T09:53:00.321Z,27.17
2018-11-07T09:55:34.193Z,32.27
2018-11-07T09:58:08.214Z,30.87
2018-11-07T10:00:43.324Z,30.53
2018-11-07T10:03:17.194Z,35.23
2018-11-07T10:05:51.098Z,33.40
2018-11-07T10:08:24.784Z,34.57
2018-11-07T10:10:58.780Z,36.63
2018-11-07T10:13:32.705Z,33.90
2018-11-07T10:16:06.418Z,33.73
2018-11-07T10:18:40.274Z,36.43
2018-11-07T10:21:14.123Z,34.13
2018-11-07T10:23:47.873Z,36.97
2018-11-07T10:26:22.092Z,35.83
2018-11-07T10:28:56.118Z,31.17
2018-11-07T10:31:29.919Z,33.47
2018-11-07T10:34:03.833Z,33.40
2018-11-07T10:36:38.754Z,33.33
2018-11-07T10:39:12.660Z,38.80
2018-11-07T10:41:46.674Z,36.50
2018-11-07T10:44:20.613Z,35.90
2018-11-07T10:46:54.545Z,34.07
2018-11-07T10:49:28.261Z,33.13
2018-11-07T10:52:02.221Z,34.53
2018-11-07T10:54:36.286Z,35.33
2018-11-07T10:57:10.164Z,34.37
2018-11-07T10:59:44.120Z,33.67
2018-11-07T11:02:23.137Z,34.10
2018-11-07T11:04:57.127Z,29.63
2018-11-07T11:07:30.827Z,33.93
2018-11-07T11:10:05.107Z,32.17
2018-11-07T11:12:38.879Z,31.67
2018-11-07T11:15:13.054Z,30.00
2018-11-07T11:17:47.045Z,32.83
2018-11-07T11:20:20.842Z,28.40
2018-11-07T11:22:54.780Z,27.63
2018-11-07T11:25:28.718Z,29.37
2018-11-07T11:28:02.601Z,29.97
2018-11-07T11:30:36.373Z,26.67
2018-11-07T11:33:10.066Z,28.13
2018-11-07T11:35:43.861Z,35.17
2018-11-07T11:38:17.534Z,28.47
2018-11-07T11:40:51.658Z,29.83
2018-11-07T11:43:25.581Z,28.10
2018-11-07T11:45:59.406Z,28.70
2018-11-07T11:48:33.429Z,35.47
2018-11-07T11:51:07.754Z,31.50
2018-11-07T11:53:41.970Z,27.33
2018-11-07T11:56:15.910Z,28.77
2018-11-07T11:58:49.910Z,30.33
2018-11-07T12:01:24.135Z,30.97
2018-11-07T12:03:58.163Z,30.30
2018-11-07T12:06:32.115Z,30.27
2018-11-07T12:09:06.993Z,28.47
2018-11-07T12:11:40.776Z,29.67
2018-11-07T12:14:14.645Z,25.47
2018-11-07T12:16:48.511Z,27.53
2018-11-07T12:19:22.444Z,27.33
2018-11-07T12:21:56.376Z,29.40
2018-11-07T12:24:30.121Z,27.27
2018-11-07T12:27:04.026Z,28.00
2018-11-07T12:29:37.861Z,25.00
2018-11-07T12:32:11.901Z,24.37
2018-11-07T12:34:45.792Z,28.53
2018-11-07T12:37:19.730Z,27.33
2018-11-07T12:39:53.653Z,25.20
2018-11-07T12:42:27.592Z,25.50
2018-11-07T12:45:02.212Z,24.40
2018-11-07T12:47:36.073Z,26.00
2018-11-07T12:50:11.718Z,26.00
2018-11-07T12:52:46.005Z,26.13
2018-11-07T12:55:20.561Z,30.90
2018-11-07T12:57:54.481Z,25.63
2018-11-07T13:00:28.274Z,31.93
2018-11-07T13:03:02.304Z,25.67
2018-11-07T13:05:36.048Z,29.17
2018-11-07T13:08:09.994Z,24.43
2018-11-07T13:10:44.071Z,22.70
2018-11-07T13:13:17.984Z,27.87
2018-11-07T13:15:51.905Z,23.17
2018-11-07T13:18:25.666Z,26.67
2018-11-07T13:20:59.520Z,27.83
2018-11-07T13:23:33.388Z,30.93
2018-11-07T13:26:07.276Z,26.87
2018-11-07T13:28:41.186Z,24.30
2018-11-07T13:31:15.176Z,25.27
2018-11-07T13:33:49.161Z,29.17
2018-11-07T13:36:22.940Z,26.33
2018-11-07T13:38:57.274Z,27.93
2018-11-07T13:41:30.888Z,24.13
2018-11-07T13:44:04.741Z,21.93
2018-11-07T13:46:38.615Z,29.70
2018-11-07T13:49:12.411Z,26.77
2018-11-07T13:51:46.346Z,25.57
2018-11-07T13:54:20.225Z,25.70
2018-11-07T13:56:54.278Z,25.57
2018-11-07T13:59:28.163Z,22.00
2018-11-07T14:02:01.909Z,25.33
2018-11-07T14:04:35.779Z,24.00
2018-11-07T14:07:10.036Z,28.60
2018-11-07T14:09:43.809Z,22.77
2018-11-07T14:12:17.841Z,23.17
2018-11-07T14:14:51.676Z,24.20
2018-11-07T14:17:25.598Z,24.40
2018-11-07T14:19:59.577Z,18.87
2018-11-07T14:22:33.499Z,22.53
2018-11-07T14:25:07.800Z,18.10
2018-11-07T14:27:41.948Z,19.03
2018-11-07T14:30:17.057Z,19.50
2018-11-07T14:32:52.769Z,20.00
2018-11-07T14:35:26.585Z,20.83
2018-11-07T14:38:00.446Z,22.50
2018-11-07T14:40:34.373Z,20.70
2018-11-07T14:43:08.316Z,20.90
2018-11-07T14:45:42.306Z,19.40
2018-11-07T14:48:16.321Z,17.93
2018-11-07T14:50:50.135Z,17.60
2018-11-07T14:53:23.930Z,17.87
2018-11-07T14:56:00.088Z,18.87
2018-11-07T14:58:37.383Z,18.50
2018-11-07T15:01:11.340Z,18.40
2018-11-07T15:03:45.346Z,20.23
2018-11-07T15:06:19.212Z,18.03
2018-11-07T15:08:53.136Z,22.20
2018-11-07T15:11:27.328Z,17.30
2018-11-07T15:14:01.270Z,16.47
2018-11-07T15:16:35.151Z,20.70
2018-11-07T15:19:08.982Z,18.43
2018-11-07T15:21:42.920Z,19.37
2018-11-07T15:24:16.820Z,17.30
2018-11-07T15:26:51.030Z,18.77
2018-11-07T15:29:24.983Z,16.67
2018-11-07T15:31:58.917Z,17.83
2018-11-07T15:34:32.837Z,17.80
2018-11-07T15:37:07.169Z,17.33
2018-11-07T15:39:46.053Z,16.57
2018-11-07T15:42:20.042Z,18.40
2018-11-07T15:44:53.923Z,18.47
2018-11-07T15:47:27.764Z,16.80
2018-11-07T15:50:06.948Z,17.57
2018-11-07T15:52:41.062Z,17.43
2018-11-07T15:55:15.132Z,20.10
2018-11-07T15:57:49.203Z,24.10
2018-11-07T16:00:23.269Z,21.10
2018-11-07T16:02:57.202Z,17.33
2018-11-07T16:05:31.140Z,26.43
2018-11-07T16:08:05.578Z,26.60
2018-11-07T16:10:39.530Z,22.27
2018-11-07T16:13:13.479Z,28.67
2018-11-07T16:15:47.450Z,25.80
2018-11-07T16:18:21.379Z,19.33
2018-11-07T16:20:55.258Z,20.37
2018-11-07T16:23:29.403Z,18.10
2018-11-07T16:26:03.432Z,19.57
2018-11-07T16:28:37.498Z,30.90
2018-11-07T16:31:11.230Z,19.43
2018-11-07T16:33:45.090Z,19.13
2018-11-07T16:36:19.009Z,22.20
2018-11-07T16:38:52.870Z,19.43
2018-11-07T16:41:26.785Z,25.07
2018-11-07T16:44:00.607Z,19.43
2018-11-07T16:46:34.640Z,23.37
2018-11-07T16:49:08.448Z,21.23
2018-11-07T16:51:42.589Z,20.80
2018-11-07T16:54:17.261Z,21.67
2018-11-07T16:56:51.351Z,23.27
2018-11-07T16:59:25.361Z,22.33
2018-11-07T17:02:00.680Z,23.90
2018-11-07T17:04:58.030Z,21.80
2018-11-07T17:07:32.247Z,22.07
2018-11-07T17:10:06.690Z,21.20
2018-11-07T17:12:40.604Z,22.87
2018-11-07T17:15:15.020Z,20.43
2018-11-07T17:17:49.031Z,22.22
2018-11-07T17:20:23.186Z,20.87
2018-11-07T17:22:57.135Z,21.10
2018-11-07T17:25:31.210Z,21.67
2018-11-07T17:28:05.358Z,21.60
2018-11-07T17:30:39.423Z,23.20
2018-11-07T17:33:13.312Z,22.60
2018-11-07T17:35:48.218Z,22.73
2018-11-07T17:38:22.312Z,22.37
2018-11-07T17:40:56.069Z,22.60
2018-11-07T17:43:30.047Z,25.30
2018-11-07T17:46:03.875Z,22.23
2018-11-07T17:48:37.907Z,22.97
2018-11-07T17:51:11.897Z,23.07
2018-11-07T17:53:45.802Z,22.50
2018-11-07T17:56:19.646Z,23.23
2018-11-07T17:58:53.398Z,22.93
2018-11-07T18:01:27.335Z,22.67
2018-11-07T18:04:01.067Z,23.67
2018-11-07T18:06:34.972Z,23.83
2018-11-07T18:09:11.309Z,23.40
2018-11-07T18:11:45.428Z,22.50
2018-11-07T18:14:19.124Z,21.63
2018-11-07T18:16:53.108Z,22.47
2018-11-07T18:19:27.034Z,22.53
2018-11-07T18:22:00.834Z,22.23
2018-11-07T18:24:34.880Z,22.43
2018-11-07T18:27:08.875Z,21.93
2018-11-07T18:29:42.934Z,21.70
2018-11-07T18:32:16.890Z,21.07
2018-11-07T18:34:50.735Z,21.20
2018-11-07T18:37:24.646Z,20.47
2018-11-07T18:39:58.575Z,20.83
2018-11-07T18:42:32.456Z,19.90
2018-11-07T18:45:07.243Z,20.23
2018-11-07T18:47:42.682Z,20.30
2018-11-07T18:50:18.077Z,21.70
2018-11-07T18:52:51.900Z,21.00
2018-11-07T18:55:25.835Z,20.97
2018-11-07T18:57:59.896Z,21.03
2018-11-07T19:00:33.731Z,20.57
2018-11-07T19:03:07.675Z,20.87
2018-11-07T19:05:41.897Z,20.47
2018-11-07T19:08:15.886Z,22.73
2018-11-07T19:10:50.009Z,20.33
2018-11-07T19:13:24.045Z,22.17
2018-11-07T19:15:57.898Z,20.60
2018-11-07T19:18:31.958Z,21.20
2018-11-07T19:21:05.967Z,21.77
2018-11-07T19:23:40.007Z,20.33
2018-11-07T19:26:14.146Z,19.93
2018-11-07T19:28:48.138Z,21.07
2018-11-07T19:31:22.015Z,20.77
2018-11-07T19:33:55.933Z,20.70
2018-11-07T19:36:30.002Z,21.90
2018-11-07T19:39:05.488Z,20.70
2018-11-07T19:41:40.141Z,21.43
2018-11-07T19:44:14.850Z,19.80
2018-11-07T19:46:49.170Z,19.63
2018-11-07T19:49:22.960Z,19.63
2018-11-07T19:51:57.205Z,20.37
2018-11-07T19:54:31.252Z,20.33
2018-11-07T19:57:05.415Z,20.40
2018-11-07T19:59:39.517Z,19.87
2018-11-07T20:02:13.600Z,20.57
2018-11-07T20:04:47.554Z,21.20
2018-11-07T20:07:21.688Z,19.00
2018-11-07T20:09:55.792Z,19.97
2018-11-07T20:12:29.985Z,18.73
2018-11-07T20:15:04.082Z,19.37
2018-11-07T20:17:37.991Z,19.37
2018-11-07T20:20:12.692Z,20.33
2018-11-07T20:22:47.140Z,19.30
2018-11-07T20:25:21.191Z,20.53
2018-11-07T20:27:55.181Z,19.73
2018-11-07T20:30:29.445Z,19.77
2018-11-07T20:33:04.907Z,18.27
2018-11-07T20:35:39.008Z,18.57
2018-11-07T20:38:13.084Z,18.60
2018-11-07T20:40:47.195Z,17.50
2018-11-07T20:43:20.921Z,17.57
2018-11-07T20:45:55.142Z,17.40
2018-11-07T20:48:28.974Z,18.17
2018-11-07T20:51:02.839Z,18.17
2018-11-07T20:53:36.824Z,17.87
2018-11-07T20:56:10.865Z,18.40
2018-11-07T20:58:44.697Z,18.13
2018-11-07T21:01:18.770Z,17.37
2018-11-07T21:03:52.523Z,18.73
2018-11-07T21:06:26.501Z,17.43
2018-11-07T21:09:00.480Z,17.75
2018-11-07T21:11:34.406Z,17.10
2018-11-07T21:14:08.564Z,16.73
2018-11-07T21:16:42.346Z,15.93
2018-11-07T21:19:16.202Z,16.03
2018-11-07T21:21:50.140Z,16.23
2018-11-07T21:24:24.052Z,16.37
2018-11-07T21:26:58.101Z,17.47
2018-11-07T21:29:31.820Z,17.67
2018-11-07T21:32:05.713Z,17.57
2018-11-07T21:34:39.583Z,17.30
2018-11-07T21:37:14.684Z,16.90
2018-11-07T21:39:48.702Z,16.97
2018-11-07T21:42:22.734Z,17.23
2018-11-07T21:44:56.615Z,17.47
2018-11-07T21:47:30.465Z,17.27
2018-11-07T21:50:04.949Z,17.87
2018-11-07T21:52:38.906Z,17.93
2018-11-07T21:55:12.990Z,18.40
2018-11-07T21:57:46.943Z,18.13
2018-11-07T22:00:20.821Z,18.77
2018-11-07T22:02:54.909Z,18.10
2018-11-07T22:05:28.757Z,19.70
2018-11-07T22:08:02.541Z,18.00
2018-11-07T22:10:36.506Z,18.33
2018-11-07T22:13:10.263Z,19.20
2018-11-07T22:15:44.205Z,20.83
2018-11-07T22:18:18.050Z,17.80
2018-11-07T22:20:51.763Z,19.03
2018-11-07T22:23:25.652Z,18.80
2018-11-07T22:25:59.689Z,20.70
2018-11-07T22:28:33.669Z,21.07
2018-11-07T22:31:07.704Z,20.03
2018-11-07T22:33:41.648Z,19.13
2018-11-07T22:36:15.483Z,21.13
2018-11-07T22:38:49.363Z,22.73
2018-11-07T22:41:23.190Z,21.83
2018-11-07T22:43:57.014Z,20.33
2018-11-07T22:46:31.002Z,22.20
2018-11-07T22:49:05.014Z,21.37
2018-11-07T22:51:38.801Z,23.00
2018-11-07T22:54:12.589Z,22.73
2018-11-07T22:56:46.445Z,23.13
2018-11-07T22:59:20.392Z,21.37
2018-11-07T23:01:54.544Z,21.40
2018-11-07T23:04:28.266Z,23.07
2018-11-07T23:07:01.989Z,23.20
2018-11-07T23:09:35.857Z,23.47
2018-11-07T23:12:09.687Z,23.57
2018-11-07T23:14:43.624Z,21.10
2018-11-07T23:17:17.538Z,20.80
2018-11-07T23:19:51.558Z,22.77
2018-11-07T23:22:25.351Z,19.50
2018-11-07T23:24:59.391Z,21.33
2018-11-07T23:27:33.294Z,20.67
2018-11-07T23:30:07.607Z,19.97
2018-11-07T23:32:41.506Z,21.23
2018-11-07T23:35:15.365Z,21.37
2018-11-07T23:37:49.236Z,19.27
2018-11-07T23:40:23.098Z,18.07
2018-11-07T23:42:57.042Z,18.17
2018-11-07T23:45:31.013Z,18.37
2018-11-07T23:48:04.882Z,18.17
2018-11-07T23:50:38.861Z,18.00
2018-11-07T23:53:13.872Z,19.43
2018-11-07T23:55:48.401Z,19.87
2018-11-07T23:58:22.444Z,17.80
